createdAt,value
2023-01-19T00:00:24.394Z,91.30
2023-01-19T00:02:51.106Z,91.30
2023-01-19T00:05:17.881Z,91.30
2023-01-19T00:07:44.509Z,91.30
2023-01-19T00:10:11.199Z,91.30
2023-01-19T00:12:37.931Z,91.30
2023-01-19T00:15:04.851Z,91.40
2023-01-19T00:17:31.773Z,91.60
2023-01-19T00:19:58.419Z,91.40
2023-01-19T00:22:25.048Z,91.40
2023-01-19T00:24:51.759Z,91.70
2023-01-19T00:27:18.566Z,91.40
2023-01-19T00:29:45.288Z,91.30
2023-01-19T00:32:12.008Z,91.30
2023-01-19T00:34:42.455Z,91.30
2023-01-19T00:37:10.069Z,91.30
2023-01-19T00:39:36.715Z,91.30
2023-01-19T00:42:22.209Z,91.40
2023-01-19T00:44:48.965Z,91.30
2023-01-19T00:47:15.547Z,91.40
2023-01-19T00:49:42.188Z,91.40
2023-01-19T00:52:08.989Z,91.40
2023-01-19T00:54:35.611Z,91.50
2023-01-19T00:57:03.323Z,91.50
2023-01-19T00:59:30.019Z,91.50
2023-01-19T01:01:56.789Z,91.40
2023-01-19T01:04:23.559Z,91.30
2023-01-19T01:06:50.329Z,91.30
2023-01-19T01:09:16.949Z,91.30
2023-01-19T01:11:43.798Z,91.60
2023-01-19T01:14:11.856Z,91.30
2023-01-19T01:16:38.664Z,91.30
2023-01-19T01:19:05.396Z,91.30
2023-01-19T01:21:34.468Z,91.30
2023-01-19T01:24:01.397Z,91.40
2023-01-19T01:26:28.070Z,91.40
2023-01-19T01:28:54.784Z,91.50
2023-01-19T01:31:21.734Z,91.50
2023-01-19T01:33:48.456Z,91.50
2023-01-19T01:36:15.190Z,91.50
2023-01-19T01:38:42.397Z,91.30
2023-01-19T01:41:09.580Z,91.30
2023-01-19T01:43:42.608Z,91.30
2023-01-19T01:46:09.311Z,91.40
2023-01-19T01:48:37.127Z,91.40
2023-01-19T01:51:24.792Z,91.50
2023-01-19T01:54:14.774Z,91.50
2023-01-19T01:56:43.175Z,91.50
2023-01-19T01:59:12.615Z,91.50
2023-01-19T02:01:58.109Z,91.60
2023-01-19T02:04:26.564Z,91.50
2023-01-19T02:07:11.938Z,91.50
2023-01-19T02:09:57.473Z,91.50
2023-01-19T02:12:44.070Z,91.60
2023-01-19T02:15:15.046Z,91.60
2023-01-19T02:17:42.063Z,91.60
2023-01-19T02:20:10.575Z,91.70
2023-01-19T02:22:42.122Z,91.70
2023-01-19T02:25:08.950Z,91.70
2023-01-19T02:27:36.944Z,91.70
2023-01-19T02:30:03.949Z,91.80
2023-01-19T02:32:30.783Z,91.80
2023-01-19T02:34:57.628Z,91.80
2023-01-19T02:37:24.345Z,91.70
2023-01-19T02:39:59.474Z,91.70
2023-01-19T02:42:34.805Z,91.70
2023-01-19T02:45:06.567Z,91.70
2023-01-19T02:47:40.503Z,91.70
2023-01-19T02:50:27.179Z,91.70
2023-01-19T02:52:58.541Z,91.80
2023-01-19T02:55:28.353Z,91.80
2023-01-19T02:58:09.819Z,91.80
2023-01-19T03:00:39.603Z,91.90
2023-01-19T03:03:06.189Z,91.90
2023-01-19T03:05:40.210Z,91.80
2023-01-19T03:08:09.992Z,91.90
2023-01-19T03:10:55.733Z,91.90
2023-01-19T03:13:29.866Z,91.90
2023-01-19T03:16:00.460Z,91.90
2023-01-19T03:18:29.462Z,91.90
2023-01-19T03:20:58.800Z,91.90
2023-01-19T03:23:27.284Z,91.90
2023-01-19T03:25:54.465Z,91.90
2023-01-19T03:28:22.818Z,91.90
2023-01-19T03:30:54.001Z,91.90
2023-01-19T03:33:26.022Z,91.90
2023-01-19T03:35:53.871Z,91.90
2023-01-19T03:38:24.940Z,91.90
2023-01-19T03:40:53.618Z,91.90
2023-01-19T03:43:21.267Z,91.90
2023-01-19T03:45:48.965Z,91.90
2023-01-19T03:48:16.220Z,91.90
2023-01-19T03:50:43.046Z,91.90
2023-01-19T03:53:11.288Z,91.90
2023-01-19T03:55:39.008Z,92.00
2023-01-19T03:58:05.717Z,92.00
2023-01-19T04:00:32.608Z,92.00
2023-01-19T04:02:59.649Z,92.00
2023-01-19T04:05:26.567Z,91.90
2023-01-19T04:07:53.235Z,91.90
2023-01-19T04:10:20.278Z,91.90
2023-01-19T04:12:47.123Z,91.90
2023-01-19T04:15:14.378Z,91.90
2023-01-19T04:17:41.122Z,91.90
2023-01-19T04:20:08.203Z,91.90
2023-01-19T04:22:35.361Z,92.00
2023-01-19T04:25:02.992Z,91.90
2023-01-19T04:27:29.639Z,92.00
2023-01-19T04:29:56.677Z,92.00
2023-01-19T04:32:23.327Z,92.00
2023-01-19T04:34:50.598Z,92.00
2023-01-19T04:37:17.493Z,92.00
2023-01-19T04:39:44.104Z,92.00
2023-01-19T04:42:10.687Z,92.00
2023-01-19T04:44:37.361Z,92.00
2023-01-19T04:47:04.042Z,91.90
2023-01-19T04:49:30.782Z,92.00
2023-01-19T04:51:57.401Z,92.00
2023-01-19T04:54:24.320Z,92.00
2023-01-19T04:56:51.014Z,92.00
2023-01-19T04:59:17.593Z,91.90
2023-01-19T05:01:44.434Z,91.90
2023-01-19T05:04:11.109Z,91.90
2023-01-19T05:06:37.737Z,91.90
2023-01-19T05:09:04.434Z,91.90
2023-01-19T05:11:31.096Z,91.90
2023-01-19T05:13:58.328Z,91.90
2023-01-19T05:16:25.321Z,91.90
2023-01-19T05:18:52.454Z,91.90
2023-01-19T05:21:19.256Z,91.90
2023-01-19T05:23:45.981Z,91.90
2023-01-19T05:26:12.716Z,92.30
2023-01-19T05:28:39.432Z,91.90
2023-01-19T05:31:06.177Z,91.90
2023-01-19T05:33:32.939Z,91.90
2023-01-19T05:35:59.607Z,91.90
2023-01-19T05:38:34.505Z,91.90
2023-01-19T05:41:02.380Z,92.00
2023-01-19T05:43:29.085Z,92.00
2023-01-19T05:45:55.710Z,92.00
2023-01-19T05:48:22.355Z,92.00
2023-01-19T05:50:49.486Z,92.00
2023-01-19T05:53:16.932Z,92.00
2023-01-19T05:55:43.712Z,92.00
2023-01-19T05:58:10.345Z,92.00
2023-01-19T06:00:37.036Z,91.90
2023-01-19T06:03:04.180Z,91.90
2023-01-19T06:05:31.083Z,91.90
2023-01-19T06:07:58.773Z,91.90
2023-01-19T06:10:25.690Z,91.90
2023-01-19T06:12:52.377Z,91.90
2023-01-19T06:15:19.569Z,91.90
2023-01-19T06:17:46.265Z,91.80
2023-01-19T06:20:14.115Z,91.80
2023-01-19T06:22:40.745Z,91.80
2023-01-19T06:25:07.641Z,91.80
2023-01-19T06:27:34.378Z,91.80
2023-01-19T06:30:01.016Z,91.70
2023-01-19T06:32:27.699Z,91.80
2023-01-19T06:34:54.334Z,91.70
2023-01-19T06:37:21.138Z,91.80
2023-01-19T06:39:47.899Z,91.70
2023-01-19T06:42:14.572Z,91.70
2023-01-19T06:44:47.223Z,91.70
2023-01-19T06:47:16.344Z,91.70
2023-01-19T06:49:43.643Z,91.70
2023-01-19T06:52:11.392Z,91.70
2023-01-19T06:54:38.099Z,91.70
2023-01-19T06:57:04.711Z,91.70
2023-01-19T06:59:31.827Z,91.70
2023-01-19T07:01:59.009Z,91.70
2023-01-19T07:04:26.934Z,91.70
2023-01-19T07:06:53.689Z,91.70
2023-01-19T07:09:20.387Z,91.70
2023-01-19T07:11:48.118Z,91.70
2023-01-19T07:14:14.925Z,91.70
2023-01-19T07:16:41.634Z,91.80
2023-01-19T07:19:10.621Z,91.70
2023-01-19T07:21:37.281Z,91.70
2023-01-19T07:24:03.965Z,91.70
2023-01-19T07:26:30.866Z,91.70
2023-01-19T07:28:57.435Z,91.70
2023-01-19T07:31:24.178Z,91.70
2023-01-19T07:33:51.031Z,91.70
2023-01-19T07:36:17.907Z,91.70
2023-01-19T07:38:44.649Z,91.70
2023-01-19T07:41:11.572Z,91.70
2023-01-19T07:43:38.197Z,91.70
2023-01-19T07:46:06.031Z,91.70
2023-01-19T07:48:34.723Z,91.70
2023-01-19T07:51:05.644Z,91.70
2023-01-19T07:53:32.951Z,91.70
2023-01-19T07:55:59.696Z,91.70
2023-01-19T07:58:26.620Z,91.70
2023-01-19T08:00:53.591Z,91.70
2023-01-19T08:03:20.526Z,91.70
2023-01-19T08:05:50.155Z,91.70
2023-01-19T08:08:17.011Z,91.70
2023-01-19T08:10:43.622Z,91.70
2023-01-19T08:13:10.307Z,91.70
2023-01-19T08:15:37.725Z,91.70
2023-01-19T08:18:09.770Z,91.70
2023-01-19T08:20:36.694Z,91.70
2023-01-19T08:23:04.821Z,91.70
2023-01-19T08:25:32.343Z,91.70
2023-01-19T08:27:59.255Z,91.70
2023-01-19T08:30:26.811Z,91.80
2023-01-19T08:32:54.604Z,91.80
2023-01-19T08:35:22.575Z,91.80
2023-01-19T08:37:49.699Z,91.80
2023-01-19T08:40:16.544Z,91.80
2023-01-19T08:42:43.140Z,91.80
2023-01-19T08:45:10.063Z,91.80
2023-01-19T08:47:36.668Z,91.80
2023-01-19T08:50:03.615Z,91.80
2023-01-19T08:52:30.576Z,91.90
2023-01-19T08:54:57.364Z,91.90
2023-01-19T08:57:24.241Z,91.90
2023-01-19T08:59:50.944Z,91.90
2023-01-19T09:02:17.878Z,91.90
2023-01-19T09:04:44.532Z,91.90
2023-01-19T09:07:11.163Z,91.90
2023-01-19T09:09:39.645Z,91.90
2023-01-19T09:12:06.708Z,91.90
2023-01-19T09:14:33.447Z,91.90
2023-01-19T09:17:00.153Z,91.90
2023-01-19T09:19:26.929Z,91.90
2023-01-19T09:21:54.765Z,91.90
2023-01-19T09:24:21.411Z,91.90
2023-01-19T09:26:48.270Z,91.90
2023-01-19T09:29:14.902Z,91.90
2023-01-19T09:31:41.507Z,91.90
2023-01-19T09:34:08.480Z,91.90
2023-01-19T09:36:37.160Z,92.00
2023-01-19T09:39:04.015Z,92.00
2023-01-19T09:41:33.505Z,91.90
2023-01-19T09:44:01.236Z,91.90
2023-01-19T09:46:41.354Z,91.90
2023-01-19T09:49:16.159Z,92.00
2023-01-19T09:51:47.264Z,92.00
2023-01-19T09:54:23.923Z,92.00
2023-01-19T09:56:52.756Z,92.00
2023-01-19T09:59:29.975Z,92.00
2023-01-19T10:02:15.525Z,92.00
2023-01-19T10:05:08.450Z,92.00
2023-01-19T10:07:53.358Z,92.00
2023-01-19T10:10:20.194Z,92.00
2023-01-19T10:13:02.753Z,92.00
2023-01-19T10:15:48.583Z,92.00
2023-01-19T10:18:18.190Z,92.00
2023-01-19T10:20:48.877Z,92.00
2023-01-19T10:23:25.576Z,92.00
2023-01-19T10:25:52.592Z,92.00
2023-01-19T10:28:22.675Z,92.00
2023-01-19T10:30:50.064Z,92.00
2023-01-19T10:33:16.960Z,92.00
2023-01-19T10:35:44.975Z,92.10
2023-01-19T10:38:13.852Z,92.10
2023-01-19T10:40:52.806Z,92.20
2023-01-19T10:43:36.219Z,92.20
2023-01-19T10:46:07.154Z,92.20
2023-01-19T10:48:38.454Z,92.20
2023-01-19T10:51:05.999Z,92.30
2023-01-19T10:53:32.669Z,92.30
2023-01-19T10:56:21.182Z,92.30
2023-01-19T10:58:47.998Z,92.30
2023-01-19T11:01:19.476Z,92.30
2023-01-19T11:03:46.451Z,92.40
2023-01-19T11:06:16.116Z,92.40
2023-01-19T11:08:44.114Z,92.50
2023-01-19T11:11:12.390Z,92.50
2023-01-19T11:13:39.742Z,92.50
2023-01-19T11:16:25.998Z,92.50
2023-01-19T11:18:53.767Z,92.50
2023-01-19T11:21:23.620Z,92.50
2023-01-19T11:23:52.933Z,92.50
2023-01-19T11:26:27.887Z,92.60
2023-01-19T11:28:56.098Z,92.60
2023-01-19T11:31:28.895Z,92.60
2023-01-19T11:33:56.768Z,92.60
2023-01-19T11:36:28.081Z,92.60
2023-01-19T11:38:59.000Z,92.60
2023-01-19T11:41:31.504Z,92.60
2023-01-19T11:44:00.048Z,92.60
2023-01-19T11:46:38.188Z,92.60
2023-01-19T11:49:08.112Z,92.60
2023-01-19T11:51:38.978Z,92.60
2023-01-19T11:54:15.314Z,92.70
2023-01-19T11:56:42.703Z,92.60
2023-01-19T11:59:11.827Z,92.70
2023-01-19T12:01:42.357Z,92.60
2023-01-19T12:04:19.110Z,93.00
2023-01-19T12:06:48.382Z,92.60
2023-01-19T12:09:19.221Z,92.70
2023-01-19T12:11:52.097Z,92.60
2023-01-19T12:14:37.555Z,92.70
2023-01-19T12:17:05.809Z,92.70
2023-01-19T12:19:55.211Z,92.70
2023-01-19T12:22:22.613Z,92.70
2023-01-19T12:25:01.333Z,92.70
2023-01-19T12:27:31.272Z,92.70
2023-01-19T12:29:57.964Z,92.70
2023-01-19T12:32:35.018Z,92.70
2023-01-19T12:35:01.767Z,92.70
2023-01-19T12:37:31.915Z,92.70
2023-01-19T12:40:05.560Z,92.70
2023-01-19T12:42:33.486Z,92.70
2023-01-19T12:45:06.612Z,92.70
2023-01-19T12:47:33.733Z,92.70
2023-01-19T12:50:06.742Z,92.70
2023-01-19T12:52:41.387Z,92.70
2023-01-19T12:55:08.278Z,92.70
2023-01-19T12:57:39.371Z,92.70
2023-01-19T13:00:26.466Z,92.70
2023-01-19T13:02:54.394Z,92.70
2023-01-19T13:05:32.514Z,92.70
2023-01-19T13:08:02.722Z,92.70
2023-01-19T13:10:48.324Z,92.70
2023-01-19T13:13:17.639Z,92.70
2023-01-19T13:15:44.502Z,92.70
2023-01-19T13:18:18.152Z,92.70
2023-01-19T13:20:50.214Z,92.60
2023-01-19T13:23:19.141Z,92.70
2023-01-19T13:26:15.265Z,92.60
2023-01-19T13:28:43.162Z,92.60
2023-01-19T13:31:10.489Z,92.60
2023-01-19T13:33:45.891Z,92.60
2023-01-19T13:36:33.042Z,92.70
2023-01-19T13:39:07.453Z,92.70
2023-01-19T13:41:38.927Z,92.70
2023-01-19T13:44:08.634Z,92.60
2023-01-19T13:46:38.477Z,92.70
2023-01-19T13:49:15.137Z,92.60
2023-01-19T13:51:42.053Z,92.60
2023-01-19T13:54:15.215Z,92.60
2023-01-19T13:56:46.634Z,92.70
2023-01-19T13:59:13.663Z,92.60
2023-01-19T14:01:41.965Z,92.60
2023-01-19T14:04:25.231Z,92.60
2023-01-19T14:06:55.492Z,92.60
2023-01-19T14:09:22.266Z,92.50
2023-01-19T14:12:09.226Z,92.50
2023-01-19T14:14:36.184Z,92.50
2023-01-19T14:17:02.955Z,92.40
2023-01-19T14:19:29.853Z,92.40
2023-01-19T14:22:00.838Z,92.40
2023-01-19T14:24:32.025Z,92.40
2023-01-19T14:27:10.091Z,92.40
2023-01-19T14:29:40.357Z,92.40
2023-01-19T14:32:07.178Z,92.40
2023-01-19T14:34:37.132Z,92.40
2023-01-19T14:37:04.499Z,92.40
2023-01-19T14:39:33.405Z,92.40
2023-01-19T14:42:01.157Z,92.40
2023-01-19T14:44:34.277Z,92.40
2023-01-19T14:47:01.447Z,92.40
2023-01-19T14:49:28.004Z,92.30
2023-01-19T14:51:55.986Z,92.30
2023-01-19T14:54:38.152Z,92.30
2023-01-19T14:57:05.034Z,92.30
2023-01-19T14:59:31.988Z,92.60
2023-01-19T15:01:59.734Z,92.30
2023-01-19T15:04:26.539Z,92.30
2023-01-19T15:06:54.596Z,92.30
2023-01-19T15:09:21.260Z,92.30
2023-01-19T15:11:48.959Z,92.30
2023-01-19T15:14:16.587Z,92.30
2023-01-19T15:16:46.592Z,92.30
2023-01-19T15:19:14.444Z,92.30
2023-01-19T15:21:42.196Z,92.30
2023-01-19T15:24:09.568Z,92.40
2023-01-19T15:26:37.800Z,92.30
2023-01-19T15:29:15.177Z,92.30
2023-01-19T15:31:42.052Z,92.30
2023-01-19T15:34:11.241Z,92.30
2023-01-19T15:36:38.138Z,92.30
2023-01-19T15:39:04.726Z,92.30
2023-01-19T15:41:31.654Z,92.30
2023-01-19T15:43:58.754Z,92.20
2023-01-19T15:46:25.811Z,92.20
2023-01-19T15:48:52.773Z,92.20
2023-01-19T15:51:20.789Z,92.30
2023-01-19T15:53:48.089Z,92.20
2023-01-19T15:56:15.820Z,92.20
2023-01-19T15:58:43.103Z,92.10
2023-01-19T16:01:12.307Z,92.10
2023-01-19T16:03:39.248Z,92.50
2023-01-19T16:06:06.167Z,92.10
2023-01-19T16:08:32.963Z,92.10
2023-01-19T16:11:03.543Z,92.10
2023-01-19T16:13:30.954Z,92.10
2023-01-19T16:16:01.321Z,92.00
2023-01-19T16:18:27.910Z,92.00
2023-01-19T16:20:54.537Z,92.00
2023-01-19T16:23:21.190Z,92.00
2023-01-19T16:26:04.648Z,91.90
2023-01-19T16:28:31.355Z,91.90
2023-01-19T16:30:57.989Z,91.90
2023-01-19T16:33:24.735Z,91.90
2023-01-19T16:35:51.408Z,92.00
2023-01-19T16:38:18.195Z,92.00
2023-01-19T16:40:45.519Z,91.90
2023-01-19T16:43:13.019Z,91.90
2023-01-19T16:45:56.513Z,91.90
2023-01-19T16:48:23.406Z,91.90
2023-01-19T16:51:03.376Z,91.90
2023-01-19T16:53:30.492Z,91.80
2023-01-19T16:55:57.196Z,91.80
2023-01-19T16:58:24.081Z,91.80
2023-01-19T17:00:50.905Z,91.80
2023-01-19T17:03:17.702Z,91.80
2023-01-19T17:05:48.417Z,91.80
2023-01-19T17:08:15.047Z,91.70
2023-01-19T17:10:43.473Z,91.70
2023-01-19T17:13:10.129Z,91.70
2023-01-19T17:15:37.034Z,91.70
2023-01-19T17:18:03.701Z,91.70
2023-01-19T17:20:32.261Z,91.70
2023-01-19T17:22:58.949Z,91.70
2023-01-19T17:25:25.572Z,91.70
2023-01-19T17:27:52.357Z,91.70
2023-01-19T17:30:19.035Z,91.70
2023-01-19T17:32:45.723Z,91.60
2023-01-19T17:35:12.443Z,91.60
2023-01-19T17:37:39.252Z,91.60
2023-01-19T17:40:06.216Z,91.60
2023-01-19T17:42:32.847Z,91.60
2023-01-19T17:44:59.444Z,91.60
2023-01-19T17:47:27.042Z,91.60
2023-01-19T17:49:53.720Z,91.60
2023-01-19T17:52:20.381Z,91.60
2023-01-19T17:54:47.037Z,91.60
2023-01-19T17:57:13.628Z,91.60
2023-01-19T17:59:43.618Z,91.60
2023-01-19T18:02:10.860Z,91.60
2023-01-19T18:04:38.221Z,91.60
2023-01-19T18:07:05.298Z,91.60
2023-01-19T18:09:32.237Z,91.90
2023-01-19T18:11:58.887Z,91.60
2023-01-19T18:14:25.712Z,91.50
2023-01-19T18:16:52.397Z,91.50
2023-01-19T18:19:22.035Z,91.50
2023-01-19T18:21:48.864Z,91.50
2023-01-19T18:24:15.505Z,91.50
2023-01-19T18:26:42.575Z,91.50
2023-01-19T18:29:09.781Z,91.50
2023-01-19T18:31:36.468Z,91.50
2023-01-19T18:34:03.530Z,91.50
2023-01-19T18:36:32.759Z,91.50
2023-01-19T18:39:00.533Z,91.50
2023-01-19T18:41:29.609Z,91.50
2023-01-19T18:44:01.495Z,91.50
2023-01-19T18:46:28.293Z,91.50
2023-01-19T18:48:54.978Z,91.50
2023-01-19T18:51:21.708Z,91.50
2023-01-19T18:53:48.413Z,91.50
2023-01-19T18:56:16.009Z,91.40
2023-01-19T18:58:42.916Z,91.40
2023-01-19T19:01:23.888Z,91.40
2023-01-19T19:03:51.165Z,91.40
2023-01-19T19:06:20.549Z,91.40
2023-01-19T19:08:48.146Z,91.40
2023-01-19T19:11:14.887Z,91.40
2023-01-19T19:13:41.896Z,91.40
2023-01-19T19:16:09.999Z,91.40
2023-01-19T19:18:37.144Z,91.40
2023-01-19T19:21:05.465Z,91.80
2023-01-19T19:23:32.509Z,91.40
2023-01-19T19:26:07.620Z,91.50
2023-01-19T19:28:35.342Z,91.50
2023-01-19T19:31:03.113Z,91.50
2023-01-19T19:33:29.902Z,91.40
2023-01-19T19:35:57.327Z,91.50
2023-01-19T19:38:24.029Z,91.50
2023-01-19T19:40:50.959Z,91.50
2023-01-19T19:43:17.779Z,91.50
2023-01-19T19:45:44.749Z,91.60
2023-01-19T19:48:11.522Z,91.50
2023-01-19T19:50:38.192Z,91.50
2023-01-19T19:53:04.864Z,91.50
2023-01-19T19:55:31.455Z,91.50
2023-01-19T19:57:58.198Z,91.40
2023-01-19T20:00:25.115Z,91.40
2023-01-19T20:02:51.894Z,91.40
2023-01-19T20:05:18.521Z,91.40
2023-01-19T20:07:48.038Z,91.50
2023-01-19T20:10:14.902Z,91.40
2023-01-19T20:12:41.558Z,91.40
2023-01-19T20:15:08.412Z,91.40
2023-01-19T20:17:35.298Z,91.40
2023-01-19T20:20:04.219Z,91.40
2023-01-19T20:22:32.544Z,91.40
2023-01-19T20:24:59.277Z,91.40
2023-01-19T20:27:25.885Z,91.40
2023-01-19T20:29:57.892Z,91.40
2023-01-19T20:32:24.807Z,91.40
2023-01-19T20:34:51.501Z,91.40
2023-01-19T20:37:18.445Z,91.50
2023-01-19T20:39:45.286Z,91.50
2023-01-19T20:42:13.524Z,91.50
2023-01-19T20:44:40.129Z,91.50
2023-01-19T20:47:06.859Z,91.50
2023-01-19T20:49:33.429Z,91.50
2023-01-19T20:52:00.033Z,91.40
2023-01-19T20:54:27.857Z,91.30
2023-01-19T20:56:54.535Z,91.30
2023-01-19T20:59:21.841Z,91.40
2023-01-19T21:01:49.364Z,91.40
2023-01-19T21:04:17.220Z,91.50
2023-01-19T21:06:43.865Z,91.50
2023-01-19T21:09:10.873Z,91.50
2023-01-19T21:11:38.043Z,91.60
2023-01-19T21:14:05.265Z,91.60
2023-01-19T21:16:32.820Z,91.60
2023-01-19T21:18:59.857Z,91.60
2023-01-19T21:21:31.623Z,91.60
2023-01-19T21:23:59.872Z,91.60
2023-01-19T21:26:29.574Z,91.60
2023-01-19T21:28:59.727Z,91.60
2023-01-19T21:31:27.890Z,91.60
2023-01-19T21:33:55.103Z,91.60
2023-01-19T21:36:22.464Z,91.60
2023-01-19T21:38:51.202Z,91.60
2023-01-19T21:41:18.529Z,91.70
2023-01-19T21:43:45.968Z,91.70
2023-01-19T21:46:14.747Z,91.70
2023-01-19T21:48:42.063Z,91.80
2023-01-19T21:51:09.218Z,91.70
2023-01-19T21:53:35.843Z,91.70
2023-01-19T21:56:02.467Z,91.70
2023-01-19T21:58:29.151Z,91.70
2023-01-19T22:01:05.685Z,91.60
2023-01-19T22:03:32.439Z,91.70
2023-01-19T22:06:06.207Z,91.70
2023-01-19T22:08:33.294Z,91.70
2023-01-19T22:11:07.089Z,91.80
2023-01-19T22:13:34.691Z,91.80
2023-01-19T22:16:02.053Z,91.80
2023-01-19T22:18:28.671Z,91.80
2023-01-19T22:20:55.465Z,91.80
2023-01-19T22:23:22.203Z,91.90
2023-01-19T22:25:48.864Z,91.90
2023-01-19T22:28:15.495Z,92.30
2023-01-19T22:30:42.556Z,91.80
2023-01-19T22:33:09.264Z,91.90
2023-01-19T22:35:35.885Z,91.90
2023-01-19T22:38:02.728Z,91.80
2023-01-19T22:40:29.376Z,91.80
2023-01-19T22:42:56.101Z,91.80
2023-01-19T22:45:22.738Z,91.80
2023-01-19T22:47:49.340Z,91.80
2023-01-19T22:50:15.923Z,91.80
2023-01-19T22:52:42.636Z,91.80
2023-01-19T22:55:09.681Z,91.90
2023-01-19T22:57:36.616Z,91.90
2023-01-19T23:00:08.484Z,91.90
2023-01-19T23:02:35.085Z,92.00
2023-01-19T23:05:01.743Z,92.00
2023-01-19T23:07:28.378Z,92.00
2023-01-19T23:09:54.926Z,92.00
2023-01-19T23:12:21.514Z,92.00
2023-01-19T23:14:48.122Z,92.00
2023-01-19T23:17:14.914Z,92.00
2023-01-19T23:19:41.674Z,92.00
2023-01-19T23:22:08.332Z,92.00
2023-01-19T23:24:35.157Z,92.00
2023-01-19T23:27:02.341Z,92.10
2023-01-19T23:29:28.957Z,92.40
2023-01-19T23:31:56.171Z,92.10
2023-01-19T23:34:22.835Z,92.10
2023-01-19T23:36:49.534Z,92.10
2023-01-19T23:39:17.379Z,92.10
2023-01-19T23:41:44.303Z,92.10
2023-01-19T23:44:10.933Z,92.10
2023-01-19T23:46:37.525Z,92.10
2023-01-19T23:49:04.243Z,92.10
2023-01-19T23:51:31.481Z,92.10
2023-01-19T23:53:58.797Z,92.10
2023-01-19T23:56:25.459Z,92.20
2023-01-19T23:58:57.537Z,92.10
